Time;durP1;ratioP1;P1;durP2;ratioP2;P2;SDS_P1;SDS_P2;PMS_P1;PMS_P2;Temp;Humidity;BMP_temperature;BMP_pressure;BME280_temperature;BME280_humidity;BME280_pressure;Samples;Min_cycle;Max_cycle;Signal;HPM_P1;HPM_P2
2023/07/14 00:01:29;;;;;;;;;;;28.10;60.00;;;;;;5036385;28;82460;-51
2023/07/14 00:03:54;;;;;;;;;;;28.10;60.10;;;;;;5033482;28;82342;-47
2023/07/14 00:06:20;;;;;;;;;;;28.10;60.10;;;;;;5034600;28;82068;-50
2023/07/14 00:08:46;;;;;;;;;;;28.10;60.10;;;;;;5035094;27;84098;-51
2023/07/14 00:11:13;;;;;;;;;;;28.10;60.20;;;;;;5035825;28;82256;-50
2023/07/14 00:13:38;;;;;;;;;;;28.10;60.20;;;;;;5028510;28;82119;-51
2023/07/14 00:16:14;;;;;;;;;;;28.00;60.10;;;;;;5036715;28;82018;-50
2023/07/14 00:18:39;;;;;;;;;;;28.00;60.20;;;;;;5028835;28;83499;-51
2023/07/14 00:21:05;;;;;;;;;;;28.00;60.30;;;;;;5035534;27;83834;-51
2023/07/14 00:23:30;;;;;;;;;;;28.00;60.30;;;;;;5033986;28;82598;-49
2023/07/14 00:25:56;;;;;;;;;;;27.90;60.20;;;;;;5035672;28;82055;-50
2023/07/14 00:28:21;;;;;;;;;;;27.90;60.30;;;;;;5034039;28;82453;-49
2023/07/14 00:30:47;;;;;;;;;;;27.90;60.30;;;;;;5034613;28;83642;-47
2023/07/14 00:33:18;;;;;;;;;;;27.90;60.40;;;;;;5034887;28;81929;-53
2023/07/14 00:35:44;;;;;;;;;;;27.90;60.40;;;;;;5034192;27;82480;-48
2023/07/14 00:38:09;;;;;;;;;;;27.90;60.30;;;;;;5038976;28;83198;-50
2023/07/14 00:40:43;;;;;;;;;;;27.90;60.50;;;;;;5028868;28;82111;-51
2023/07/14 00:43:21;;;;;;;;;;;27.80;60.50;;;;;;5033033;28;86985;-50
2023/07/14 00:45:47;;;;;;;;;;;27.80;60.50;;;;;;5037627;27;82643;-49
2023/07/14 00:48:18;;;;;;;;;;;27.80;60.50;;;;;;5036105;27;82470;-52
2023/07/14 00:50:43;;;;;;;;;;;27.80;60.50;;;;;;5038561;28;82949;-49
2023/07/14 00:53:19;;;;;;;;;;;27.80;60.60;;;;;;5036730;28;82087;-50
2023/07/14 00:55:50;;;;;;;;;;;27.70;60.50;;;;;;5036293;28;82608;-48
2023/07/14 00:58:17;;;;;;;;;;;27.80;60.50;;;;;;5037583;28;82952;-53
2023/07/14 01:01:01;;;;;;;;;;;27.80;60.60;;;;;;5035250;28;82003;-51
2023/07/14 01:03:27;;;;;;;;;;;27.70;60.50;;;;;;5035161;27;82866;-53
2023/07/14 01:05:53;;;;;;;;;;;27.70;60.50;;;;;;5037060;28;82213;-50
2023/07/14 01:08:19;;;;;;;;;;;27.70;60.50;;;;;;5029432;28;83247;-49
2023/07/14 01:10:45;;;;;;;;;;;27.70;60.50;;;;;;5038309;28;83043;-50
2023/07/14 01:13:11;;;;;;;;;;;27.70;60.50;;;;;;5035626;28;82661;-49
2023/07/14 01:15:37;;;;;;;;;;;27.70;60.50;;;;;;5035562;28;84065;-51
2023/07/14 01:18:03;;;;;;;;;;;27.70;60.50;;;;;;5037043;28;82794;-48
2023/07/14 01:20:30;;;;;;;;;;;27.70;60.50;;;;;;5032927;28;82046;-49
2023/07/14 01:22:59;;;;;;;;;;;27.70;60.50;;;;;;5036933;28;84348;-50
2023/07/14 01:25:34;;;;;;;;;;;27.60;60.50;;;;;;5035679;28;81302;-53
2023/07/14 01:28:03;;;;;;;;;;;27.60;60.40;;;;;;5032916;28;82216;-53
2023/07/14 01:30:29;;;;;;;;;;;27.60;60.40;;;;;;5036398;28;83678;-54
2023/07/14 01:32:54;;;;;;;;;;;27.60;60.40;;;;;;5036487;28;82894;-51
2023/07/14 01:35:22;;;;;;;;;;;27.60;60.40;;;;;;5036213;28;82560;-50
2023/07/14 01:37:48;;;;;;;;;;;27.60;60.40;;;;;;5038056;28;82431;-53
2023/07/14 01:40:18;;;;;;;;;;;27.60;60.40;;;;;;5035772;28;82561;-50
2023/07/14 01:42:52;;;;;;;;;;;27.60;60.40;;;;;;5033963;28;82475;-51
2023/07/14 01:45:18;;;;;;;;;;;27.50;60.50;;;;;;5030836;28;82009;-51
2023/07/14 01:47:47;;;;;;;;;;;27.60;60.50;;;;;;5036740;27;82565;-50
2023/07/14 01:50:21;;;;;;;;;;;27.50;60.50;;;;;;5037302;28;83670;-51
2023/07/14 01:52:49;;;;;;;;;;;27.50;60.60;;;;;;5030430;28;82339;-49
2023/07/14 01:55:19;;;;;;;;;;;27.50;60.50;;;;;;5037734;28;81889;-52
2023/07/14 01:57:46;;;;;;;;;;;27.50;60.50;;;;;;5035913;28;85518;-50
2023/07/14 02:00:12;;;;;;;;;;;27.40;60.40;;;;;;5035770;28;82581;-50
2023/07/14 02:02:39;;;;;;;;;;;27.40;60.50;;;;;;5035789;28;82423;-51
2023/07/14 02:05:06;;;;;;;;;;;27.40;60.50;;;;;;5036957;28;82248;-50
2023/07/14 02:07:31;;;;;;;;;;;27.40;60.40;;;;;;5038640;28;84013;-53
2023/07/14 02:09:57;;;;;;;;;;;27.40;60.50;;;;;;5034797;28;82297;-49
2023/07/14 02:12:27;;;;;;;;;;;27.40;60.50;;;;;;5038036;28;82226;-51
2023/07/14 02:14:54;;;;;;;;;;;27.40;60.60;;;;;;5034464;28;82370;-51
2023/07/14 02:17:25;;;;;;;;;;;27.40;60.60;;;;;;5036406;28;82262;-53
2023/07/14 02:19:51;;;;;;;;;;;27.30;60.50;;;;;;5033627;28;82423;-51
2023/07/14 02:22:17;;;;;;;;;;;27.40;60.50;;;;;;5031014;28;84246;-51
2023/07/14 02:24:44;;;;;;;;;;;27.30;60.40;;;;;;5038055;28;83611;-52
2023/07/14 02:27:11;;;;;;;;;;;27.30;60.60;;;;;;5033597;28;82119;-49
2023/07/14 02:29:36;;;;;;;;;;;27.30;60.60;;;;;;5033632;28;83484;-52
2023/07/14 02:32:08;;;;;;;;;;;27.30;60.60;;;;;;5037599;28;82079;-51
2023/07/14 02:34:36;;;;;;;;;;;27.30;60.60;;;;;;5036682;28;82579;-53
2023/07/14 02:37:03;;;;;;;;;;;27.30;60.60;;;;;;5033685;28;83530;-50
2023/07/14 02:39:33;;;;;;;;;;;27.20;60.60;;;;;;5035400;28;81675;-51
2023/07/14 02:42:00;;;;;;;;;;;27.20;60.60;;;;;;5030528;28;83209;-47
2023/07/14 02:44:37;;;;;;;;;;;27.20;60.50;;;;;;5034640;28;83084;-51
2023/07/14 02:47:02;;;;;;;;;;;27.20;60.50;;;;;;5034949;28;83195;-50
2023/07/14 02:49:28;;;;;;;;;;;27.20;60.50;;;;;;5039637;28;83304;-54
2023/07/14 02:51:53;;;;;;;;;;;27.20;60.60;;;;;;5032703;28;82126;-50
2023/07/14 02:54:19;;;;;;;;;;;27.20;60.60;;;;;;5037672;28;81957;-54
2023/07/14 02:56:44;;;;;;;;;;;27.20;60.60;;;;;;5032590;28;83796;-51
2023/07/14 02:59:11;;;;;;;;;;;27.20;60.60;;;;;;5029627;28;81863;-57
2023/07/14 03:01:36;;;;;;;;;;;27.10;60.50;;;;;;5031413;28;82375;-54
2023/07/14 03:04:02;;;;;;;;;;;27.10;60.50;;;;;;5035964;28;85393;-54
2023/07/14 03:06:27;;;;;;;;;;;27.20;60.50;;;;;;5034896;28;82120;-50
2023/07/14 03:08:53;;;;;;;;;;;27.10;60.40;;;;;;5037165;27;82893;-50
2023/07/14 03:11:18;;;;;;;;;;;27.10;60.50;;;;;;5035065;28;83171;-52
2023/07/14 03:13:46;;;;;;;;;;;27.10;60.50;;;;;;5034303;28;83480;-52
2023/07/14 03:16:12;;;;;;;;;;;27.00;60.60;;;;;;5028391;28;82506;-52
2023/07/14 03:18:37;;;;;;;;;;;27.00;60.50;;;;;;5037398;28;82209;-51
2023/07/14 03:21:03;;;;;;;;;;;27.00;60.50;;;;;;5034862;28;82492;-49
2023/07/14 03:23:29;;;;;;;;;;;27.00;60.60;;;;;;5033778;28;82260;-51
2023/07/14 03:26:01;;;;;;;;;;;27.10;60.50;;;;;;5031990;28;81990;-51
2023/07/14 03:28:27;;;;;;;;;;;27.00;60.50;;;;;;5026104;28;81573;-51
2023/07/14 03:30:52;;;;;;;;;;;27.00;60.50;;;;;;5031726;28;82582;-51
2023/07/14 03:33:18;;;;;;;;;;;27.00;60.50;;;;;;5035731;28;82322;-47
2023/07/14 03:35:43;;;;;;;;;;;27.00;60.60;;;;;;5024619;28;83935;-50
2023/07/14 03:38:09;;;;;;;;;;;27.00;60.50;;;;;;5026399;28;82044;-52
2023/07/14 03:40:34;;;;;;;;;;;26.90;60.50;;;;;;5036320;28;82626;-51
2023/07/14 03:43:00;;;;;;;;;;;26.90;60.50;;;;;;5033379;28;82981;-49
2023/07/14 03:45:25;;;;;;;;;;;26.90;60.50;;;;;;5032228;28;83750;-50
2023/07/14 03:47:51;;;;;;;;;;;26.90;60.50;;;;;;5024410;28;82510;-49
2023/07/14 03:50:17;;;;;;;;;;;26.90;60.50;;;;;;5036852;28;83711;-49
2023/07/14 03:52:42;;;;;;;;;;;26.90;60.60;;;;;;5036869;28;81568;-53
2023/07/14 03:55:09;;;;;;;;;;;26.90;60.50;;;;;;5022179;28;84500;-50
2023/07/14 03:57:35;;;;;;;;;;;26.90;60.50;;;;;;5026818;28;82160;-48
2023/07/14 04:00:11;;;;;;;;;;;26.80;60.50;;;;;;5033218;28;83095;-50
2023/07/14 04:02:38;;;;;;;;;;;26.80;60.60;;;;;;5026168;28;84243;-50
2023/07/14 04:05:04;;;;;;;;;;;26.80;60.60;;;;;;5032628;28;82169;-50
2023/07/14 04:07:30;;;;;;;;;;;26.80;60.60;;;;;;5024003;28;82637;-50
2023/07/14 04:09:55;;;;;;;;;;;26.80;61.20;;;;;;5036156;28;83070;-49
2023/07/14 04:12:21;;;;;;;;;;;26.80;60.60;;;;;;5027985;28;83815;-53
2023/07/14 04:14:46;;;;;;;;;;;26.80;60.60;;;;;;5031992;28;82445;-54
2023/07/14 04:17:12;;;;;;;;;;;26.80;60.60;;;;;;5034403;28;82710;-48
2023/07/14 04:19:37;;;;;;;;;;;26.80;60.60;;;;;;5034448;28;82115;-52
2023/07/14 04:22:03;;;;;;;;;;;26.70;60.50;;;;;;5024461;28;83165;-49
2023/07/14 04:24:28;;;;;;;;;;;26.70;60.60;;;;;;5030914;28;83168;-52
2023/07/14 04:26:55;;;;;;;;;;;26.70;60.60;;;;;;5035351;28;83422;-48
2023/07/14 04:29:21;;;;;;;;;;;26.70;60.70;;;;;;5038960;28;81965;-51
2023/07/14 04:31:47;;;;;;;;;;;26.70;60.70;;;;;;5027695;28;82119;-50
2023/07/14 04:34:12;;;;;;;;;;;26.70;60.70;;;;;;5033211;28;85003;-53
2023/07/14 04:36:38;;;;;;;;;;;26.70;60.60;;;;;;5040929;28;84658;-53
2023/07/14 04:39:10;;;;;;;;;;;26.70;60.60;;;;;;5034045;28;83981;-49
2023/07/14 04:41:36;;;;;;;;;;;26.70;60.70;;;;;;5025640;28;82651;-47
2023/07/14 04:44:05;;;;;;;;;;;26.60;60.70;;;;;;5023175;28;82063;-50
2023/07/14 04:46:31;;;;;;;;;;;26.60;60.80;;;;;;5037166;27;83666;-49
2023/07/14 04:48:57;;;;;;;;;;;26.60;60.70;;;;;;5033541;28;85234;-48
2023/07/14 04:51:22;;;;;;;;;;;26.60;60.80;;;;;;5025776;28;81956;-52
2023/07/14 04:53:48;;;;;;;;;;;26.60;60.80;;;;;;5036689;28;82012;-48
2023/07/14 04:56:14;;;;;;;;;;;26.60;60.80;;;;;;5035405;28;82448;-50
2023/07/14 04:58:39;;;;;;;;;;;26.60;60.90;;;;;;5034457;28;81985;-51
2023/07/14 05:01:05;;;;;;;;;;;26.60;60.90;;;;;;5031536;28;83440;-49
2023/07/14 05:03:30;;;;;;;;;;;26.50;60.90;;;;;;5035206;28;82106;-46
2023/07/14 05:05:56;;;;;;;;;;;26.50;60.90;;;;;;5037329;28;81239;-53
2023/07/14 05:08:21;;;;;;;;;;;26.50;60.90;;;;;;5032126;28;83107;-47
2023/07/14 05:10:47;;;;;;;;;;;26.50;60.80;;;;;;5027596;28;82062;-51
2023/07/14 05:13:13;;;;;;;;;;;26.60;60.90;;;;;;5035022;28;83441;-49
2023/07/14 05:15:40;;;;;;;;;;;26.50;61.00;;;;;;5034389;28;82972;-50
2023/07/14 05:18:06;;;;;;;;;;;26.50;60.90;;;;;;5037123;28;81984;-48
2023/07/14 05:20:31;;;;;;;;;;;26.50;60.90;;;;;;5023042;28;83352;-52
2023/07/14 05:22:57;;;;;;;;;;;26.50;61.00;;;;;;5031416;28;82161;-50
2023/07/14 05:25:23;;;;;;;;;;;26.50;60.90;;;;;;5038758;28;83134;-53
2023/07/14 05:27:48;;;;;;;;;;;26.50;61.00;;;;;;5032010;28;84638;-49
2023/07/14 05:30:15;;;;;;;;;;;26.60;61.00;;;;;;5022875;28;82054;-48
2023/07/14 05:32:44;;;;;;;;;;;26.60;60.90;;;;;;5030082;28;81915;-52
2023/07/14 05:35:11;;;;;;;;;;;26.50;60.90;;;;;;5036800;28;83205;-50
2023/07/14 05:37:37;;;;;;;;;;;26.60;61.00;;;;;;5026337;28;83247;-49
2023/07/14 05:40:06;;;;;;;;;;;26.60;60.90;;;;;;5027213;28;83384;-46
2023/07/14 05:42:31;;;;;;;;;;;26.60;60.90;;;;;;5034248;28;81908;-51
2023/07/14 05:44:57;;;;;;;;;;;26.60;60.90;;;;;;5038816;28;82617;-48
2023/07/14 05:47:25;;;;;;;;;;;26.50;60.90;;;;;;5030602;28;82986;-52
2023/07/14 05:49:51;;;;;;;;;;;26.60;60.90;;;;;;5019727;28;82234;-49
2023/07/14 05:52:17;;;;;;;;;;;26.60;60.90;;;;;;5035922;28;82020;-50
2023/07/14 05:54:43;;;;;;;;;;;26.50;60.90;;;;;;5036831;28;83838;-51
2023/07/14 05:57:08;;;;;;;;;;;26.50;60.90;;;;;;5023819;28;82100;-48
2023/07/14 05:59:34;;;;;;;;;;;26.50;60.90;;;;;;5023014;28;82344;-50
2023/07/14 06:01:59;;;;;;;;;;;26.50;61.00;;;;;;5036161;28;83580;-47
2023/07/14 06:04:25;;;;;;;;;;;26.50;61.00;;;;;;5029779;28;82616;-51
2023/07/14 06:06:51;;;;;;;;;;;26.50;61.10;;;;;;5024853;28;83185;-51
2023/07/14 06:09:16;;;;;;;;;;;26.50;61.10;;;;;;5029619;28;82101;-50
2023/07/14 06:11:42;;;;;;;;;;;26.50;61.10;;;;;;5038060;28;82961;-48
2023/07/14 06:14:09;;;;;;;;;;;26.50;61.70;;;;;;5026589;28;85781;-48
2023/07/14 06:16:34;;;;;;;;;;;26.50;61.20;;;;;;5026682;28;82082;-51
2023/07/14 06:19:00;;;;;;;;;;;26.50;61.20;;;;;;5034056;28;81968;-49
2023/07/14 06:21:25;;;;;;;;;;;26.50;61.20;;;;;;5036805;28;83003;-47
2023/07/14 06:23:51;;;;;;;;;;;26.50;61.20;;;;;;5035080;28;82514;-50
2023/07/14 06:26:16;;;;;;;;;;;26.50;61.20;;;;;;5019314;28;84137;-52
2023/07/14 06:28:43;;;;;;;;;;;26.50;61.20;;;;;;5029760;28;82045;-48
2023/07/14 06:31:10;;;;;;;;;;;26.50;61.20;;;;;;5034916;28;82952;-48
2023/07/14 06:33:35;;;;;;;;;;;26.50;61.20;;;;;;5027607;28;83138;-50
2023/07/14 06:36:01;;;;;;;;;;;26.50;61.20;;;;;;5025876;28;83093;-49
2023/07/14 06:38:28;;;;;;;;;;;26.50;61.20;;;;;;5033223;28;82660;-52
2023/07/14 06:41:03;;;;;;;;;;;26.50;61.20;;;;;;5029770;28;82305;-52
2023/07/14 06:43:30;;;;;;;;;;;26.50;61.20;;;;;;5025436;28;81328;-52
2023/07/14 06:45:55;;;;;;;;;;;26.50;61.20;;;;;;5030207;27;83128;-54
2023/07/14 06:48:21;;;;;;;;;;;26.50;61.20;;;;;;5033467;28;82054;-55
2023/07/14 06:50:47;;;;;;;;;;;26.50;61.20;;;;;;5033739;28;83232;-52
2023/07/14 06:53:12;;;;;;;;;;;26.50;61.30;;;;;;5025749;28;83215;-51
2023/07/14 06:55:38;;;;;;;;;;;26.50;61.30;;;;;;5031840;28;82315;-48
2023/07/14 06:58:05;;;;;;;;;;;26.50;61.30;;;;;;5034348;27;82448;-52
2023/07/14 07:00:31;;;;;;;;;;;26.50;61.20;;;;;;5024612;28;84533;-54
2023/07/14 07:02:57;;;;;;;;;;;26.50;61.20;;;;;;5025595;28;82386;-50
2023/07/14 07:05:23;;;;;;;;;;;26.50;61.20;;;;;;5033271;27;82324;-50
2023/07/14 07:07:48;;;;;;;;;;;26.60;61.40;;;;;;5039401;28;82203;-50
2023/07/14 07:10:14;;;;;;;;;;;26.50;61.30;;;;;;5027107;28;84004;-52
2023/07/14 07:12:39;;;;;;;;;;;26.50;61.40;;;;;;5025816;28;83777;-49
2023/07/14 07:15:05;;;;;;;;;;;26.50;61.40;;;;;;5032500;28;83020;-51
2023/07/14 07:17:31;;;;;;;;;;;26.50;61.40;;;;;;5030772;28;83452;-51
2023/07/14 07:19:56;;;;;;;;;;;26.50;61.50;;;;;;5025451;28;83676;-52
2023/07/14 07:22:21;;;;;;;;;;;26.50;61.50;;;;;;5024968;28;82188;-51
2023/07/14 07:24:47;;;;;;;;;;;26.50;61.60;;;;;;5033533;28;82723;-53
2023/07/14 07:27:12;;;;;;;;;;;26.50;61.60;;;;;;5035012;28;83115;-50
2023/07/14 07:29:44;;;;;;;;;;;26.50;61.70;;;;;;5025256;28;82449;-49
2023/07/14 07:32:10;;;;;;;;;;;26.50;61.70;;;;;;5024465;28;82435;-50
2023/07/14 07:34:36;;;;;;;;;;;26.50;61.70;;;;;;5035037;28;82116;-53
2023/07/14 07:37:01;;;;;;;;;;;26.50;61.60;;;;;;5035011;28;82407;-53
2023/07/14 07:39:27;;;;;;;;;;;26.50;61.60;;;;;;5032265;28;83999;-50
2023/07/14 07:41:53;;;;;;;;;;;26.50;61.70;;;;;;5036241;28;82026;-52
2023/07/14 07:44:19;;;;;;;;;;;26.50;61.60;;;;;;5034312;27;82313;-51
2023/07/14 07:46:44;;;;;;;;;;;26.50;61.60;;;;;;5033961;28;82185;-47
2023/07/14 07:49:10;;;;;;;;;;;26.50;61.70;;;;;;5036035;28;82064;-52
2023/07/14 07:51:36;;;;;;;;;;;26.50;61.70;;;;;;5037104;28;82105;-48
2023/07/14 07:54:02;;;;;;;;;;;26.50;61.70;;;;;;5030186;27;81913;-48
2023/07/14 07:56:27;;;;;;;;;;;26.50;61.70;;;;;;5040239;28;82512;-50
2023/07/14 07:58:53;;;;;;;;;;;26.50;61.80;;;;;;5037516;28;82497;-48
2023/07/14 08:01:20;;;;;;;;;;;26.60;61.80;;;;;;5039138;28;82145;-51
2023/07/14 08:03:45;;;;;;;;;;;26.60;61.80;;;;;;5034870;28;82949;-50
2023/07/14 08:06:11;;;;;;;;;;;26.50;61.80;;;;;;5037956;28;83394;-52
2023/07/14 08:08:37;;;;;;;;;;;26.50;61.80;;;;;;5034035;28;82198;-49
2023/07/14 08:11:02;;;;;;;;;;;26.50;61.90;;;;;;5039930;27;84671;-51
2023/07/14 08:13:29;;;;;;;;;;;26.60;62.00;;;;;;5039104;28;82094;-48
2023/07/14 08:15:55;;;;;;;;;;;26.50;61.90;;;;;;5036639;27;83760;-51
2023/07/14 08:18:20;;;;;;;;;;;26.50;62.00;;;;;;5031533;28;88382;-48
2023/07/14 08:20:46;;;;;;;;;;;26.50;61.90;;;;;;5029086;28;86374;-50
2023/07/14 08:23:14;;;;;;;;;;;26.60;62.10;;;;;;5031233;28;88121;-49
2023/07/14 08:25:39;;;;;;;;;;;26.60;62.10;;;;;;5033241;28;87837;-50
2023/07/14 08:28:05;;;;;;;;;;;26.60;62.10;;;;;;5034409;28;88066;-50
2023/07/14 08:30:30;;;;;;;;;;;26.60;62.10;;;;;;5034189;28;88726;-49
2023/07/14 08:32:56;;;;;;;;;;;26.60;62.20;;;;;;5036223;28;89303;-49
2023/07/14 08:35:22;;;;;;;;;;;26.60;62.20;;;;;;5034826;28;87290;-51
2023/07/14 08:37:48;;;;;;;;;;;26.60;62.20;;;;;;5033186;28;88490;-49
2023/07/14 08:40:16;;;;;;;;;;;26.60;62.20;;;;;;5034667;28;87535;-48
2023/07/14 08:42:56;;;;;;;;;;;26.60;62.20;;;;;;5032491;27;87550;-52
2023/07/14 08:45:23;;;;;;;;;;;26.60;62.20;;;;;;5032428;28;87385;-50
2023/07/14 08:47:58;;;;;;;;;;;26.60;62.30;;;;;;5031266;28;87114;-52
2023/07/14 08:50:25;;;;;;;;;;;26.60;62.20;;;;;;5028423;28;87754;-47
2023/07/14 08:52:51;;;;;;;;;;;26.60;62.30;;;;;;5034687;28;88662;-47
2023/07/14 08:55:25;;;;;;;;;;;26.60;62.30;;;;;;5035655;28;87147;-49
2023/07/14 08:57:53;;;;;;;;;;;26.60;62.20;;;;;;5033519;28;87582;-49
2023/07/14 09:00:25;;;;;;;;;;;26.60;62.20;;;;;;5035080;28;87747;-47
2023/07/14 09:03:11;;;;;;;;;;;26.60;62.30;;;;;;5029764;28;88806;-50
2023/07/14 09:05:39;;;;;;;;;;;26.60;62.30;;;;;;5034085;28;88583;-51
2023/07/14 09:08:08;;;;;;;;;;;26.60;62.30;;;;;;5028522;28;87120;-49
2023/07/14 09:10:39;;;;;;;;;;;26.60;62.30;;;;;;5031382;28;87503;-51
2023/07/14 09:13:11;;;;;;;;;;;26.60;62.30;;;;;;5033205;28;88058;-47
2023/07/14 09:15:37;;;;;;;;;;;26.60;62.30;;;;;;5035311;28;87085;-50
2023/07/14 09:18:12;;;;;;;;;;;26.60;62.30;;;;;;5034310;27;88002;-49
2023/07/14 09:20:58;;;;;;;;;;;26.70;62.30;;;;;;5030105;28;87214;-49
2023/07/14 09:23:44;;;;;;;;;;;26.70;62.30;;;;;;5027271;28;88961;-50
2023/07/14 09:26:16;;;;;;;;;;;26.70;62.30;;;;;;5034696;28;89503;-49
2023/07/14 09:28:46;;;;;;;;;;;26.70;62.30;;;;;;5028839;28;87135;-49
2023/07/14 09:31:37;;;;;;;;;;;26.70;62.40;;;;;;5033739;27;87512;-50
2023/07/14 09:34:07;;;;;;;;;;;26.70;62.40;;;;;;5029639;28;89732;-51
2023/07/14 09:36:35;;;;;;;;;;;26.70;62.30;;;;;;5033638;28;86242;-50
2023/07/14 09:39:04;;;;;;;;;;;26.70;62.40;;;;;;5033378;28;88065;-50
2023/07/14 09:41:31;;;;;;;;;;;26.70;62.40;;;;;;5034973;28;87179;-52
2023/07/14 09:43:58;;;;;;;;;;;26.70;62.30;;;;;;5030872;28;87958;-50
2023/07/14 09:46:24;;;;;;;;;;;26.80;62.40;;;;;;5034221;28;88139;-48
2023/07/14 09:48:52;;;;;;;;;;;26.80;62.40;;;;;;5031523;28;87105;-52
2023/07/14 09:51:23;;;;;;;;;;;26.80;62.40;;;;;;5033373;27;87367;-51
2023/07/14 09:53:56;;;;;;;;;;;26.80;62.40;;;;;;5033163;28;89828;-51
2023/07/14 09:56:24;;;;;;;;;;;26.80;62.40;;;;;;5030875;28;87566;-47
2023/07/14 09:58:53;;;;;;;;;;;26.80;62.40;;;;;;5034225;28;87819;-51
2023/07/14 10:01:18;;;;;;;;;;;26.80;62.30;;;;;;5035562;28;87466;-49
2023/07/14 10:03:48;;;;;;;;;;;26.80;62.40;;;;;;5032026;28;87079;-50
2023/07/14 10:06:25;;;;;;;;;;;26.90;63.00;;;;;;5033490;28;88231;-49
2023/07/14 10:08:54;;;;;;;;;;;26.90;62.40;;;;;;5028175;28;88276;-48
2023/07/14 10:11:23;;;;;;;;;;;26.90;62.40;;;;;;5027116;27;90027;-48
2023/07/14 10:14:11;;;;;;;;;;;26.90;62.30;;;;;;5032536;28;87899;-51
2023/07/14 10:16:41;;;;;;;;;;;26.90;62.30;;;;;;5011871;28;87227;-50
2023/07/14 10:19:18;;;;;;;;;;;26.90;62.30;;;;;;5030811;27;89122;-52
2023/07/14 10:21:57;;;;;;;;;;;26.90;62.30;;;;;;5026728;28;89622;-49
2023/07/14 10:24:24;;;;;;;;;;;26.90;62.30;;;;;;5034515;28;87383;-49
2023/07/14 10:26:56;;;;;;;;;;;26.90;62.20;;;;;;5033644;28;89540;-49
2023/07/14 10:29:23;;;;;;;;;;;27.00;62.30;;;;;;5023183;28;87362;-49
2023/07/14 10:32:04;;;;;;;;;;;27.00;62.30;;;;;;5031994;28;87206;-51
2023/07/14 10:34:35;;;;;;;;;;;27.00;62.30;;;;;;5030901;28;89323;-51
2023/07/14 10:37:04;;;;;;;;;;;27.00;62.20;;;;;;5027734;28;87227;-51
2023/07/14 10:39:36;;;;;;;;;;;27.00;62.20;;;;;;5032636;27;88757;-48
2023/07/14 10:42:03;;;;;;;;;;;27.00;62.20;;;;;;5031870;28;89326;-47
2023/07/14 10:44:32;;;;;;;;;;;27.00;62.20;;;;;;5031313;28;87093;-49
2023/07/14 10:47:02;;;;;;;;;;;27.00;62.20;;;;;;5036653;28;88826;-55
2023/07/14 10:49:41;;;;;;;;;;;27.10;62.20;;;;;;5030269;28;88111;-50
2023/07/14 10:52:19;;;;;;;;;;;27.10;62.20;;;;;;5031978;27;87453;-49
2023/07/14 10:55:03;;;;;;;;;;;27.10;62.20;;;;;;5027000;28;87179;-51
2023/07/14 10:57:37;;;;;;;;;;;27.10;62.20;;;;;;5034254;28;88125;-51
2023/07/14 11:00:19;;;;;;;;;;;27.10;62.20;;;;;;5028288;28;89237;-49
2023/07/14 11:02:51;;;;;;;;;;;27.10;62.20;;;;;;5029793;28;86971;-51
2023/07/14 11:05:19;;;;;;;;;;;27.10;62.20;;;;;;5032198;28;87075;-49
2023/07/14 11:07:45;;;;;;;;;;;27.20;62.20;;;;;;5032155;28;87652;-49
2023/07/14 11:10:21;;;;;;;;;;;27.20;62.20;;;;;;5034134;28;88520;-54
2023/07/14 11:12:57;;;;;;;;;;;27.20;62.20;;;;;;5033815;28;87359;-51
2023/07/14 11:15:25;;;;;;;;;;;27.20;62.20;;;;;;5031165;28;88167;-50
2023/07/14 11:17:51;;;;;;;;;;;27.20;62.20;;;;;;5031723;28;86703;-49
2023/07/14 11:20:36;;;;;;;;;;;27.30;62.20;;;;;;5030631;28;87163;-49
2023/07/14 11:23:03;;;;;;;;;;;27.30;62.20;;;;;;5029150;28;88017;-49
2023/07/14 11:25:38;;;;;;;;;;;27.30;62.20;;;;;;5030255;28;87989;-49
2023/07/14 11:28:14;;;;;;;;;;;27.30;62.10;;;;;;5033509;28;88850;-50
2023/07/14 11:30:42;;;;;;;;;;;27.30;62.10;;;;;;5031238;28;89699;-51
2023/07/14 11:33:25;;;;;;;;;;;27.30;62.10;;;;;;5034488;28;87075;-50
2023/07/14 11:35:50;;;;;;;;;;;27.40;62.10;;;;;;5030177;28;87606;-50
2023/07/14 11:38:28;;;;;;;;;;;27.40;62.10;;;;;;5032530;28;87161;-51
2023/07/14 11:40:54;;;;;;;;;;;27.40;62.10;;;;;;5029227;28;87460;-51
2023/07/14 11:43:21;;;;;;;;;;;27.40;62.10;;;;;;5033885;28;87289;-52
2023/07/14 11:46:16;;;;;;;;;;;27.40;62.00;;;;;;5026106;28;87072;-52
2023/07/14 11:48:53;;;;;;;;;;;27.40;62.00;;;;;;5019413;28;88782;-48
2023/07/14 11:51:20;;;;;;;;;;;27.50;62.00;;;;;;5029610;28;88630;-54
2023/07/14 11:54:05;;;;;;;;;;;27.50;62.00;;;;;;5033443;28;87079;-52
2023/07/14 11:56:35;;;;;;;;;;;27.50;62.00;;;;;;5028270;28;87776;-49
2023/07/14 11:59:16;;;;;;;;;;;27.50;62.00;;;;;;5032508;28;87092;-51
2023/07/14 12:01:46;;;;;;;;;;;27.50;62.00;;;;;;5028511;28;87846;-49
2023/07/14 12:04:34;;;;;;;;;;;27.50;62.00;;;;;;5030219;28;89678;-52
2023/07/14 12:07:16;;;;;;;;;;;27.60;62.00;;;;;;5028556;28;87455;-53
2023/07/14 12:09:55;;;;;;;;;;;27.60;62.00;;;;;;5026634;28;87438;-52
2023/07/14 12:12:20;;;;;;;;;;;27.60;62.00;;;;;;5029749;28;88378;-53
2023/07/14 12:14:50;;;;;;;;;;;27.60;61.90;;;;;;5030279;28;87274;-53
2023/07/14 12:17:34;;;;;;;;;;;27.60;61.90;;;;;;5034766;28;88089;-50
2023/07/14 12:20:03;;;;;;;;;;;27.60;61.80;;;;;;5026724;28;87048;-51
2023/07/14 12:22:36;;;;;;;;;;;27.60;61.90;;;;;;5032670;28;88953;-53
2023/07/14 12:25:09;;;;;;;;;;;27.60;61.80;;;;;;5026123;28;87982;-53
2023/07/14 12:27:35;;;;;;;;;;;27.70;61.80;;;;;;5027784;28;87017;-53
2023/07/14 12:30:05;;;;;;;;;;;27.70;61.80;;;;;;5030856;28;87760;-52
2023/07/14 12:32:30;;;;;;;;;;;27.70;61.80;;;;;;5032084;28;88233;-51
2023/07/14 12:34:56;;;;;;;;;;;27.70;61.80;;;;;;5028756;28;86371;-52
2023/07/14 12:37:23;;;;;;;;;;;27.70;61.70;;;;;;5029354;28;87073;-52
2023/07/14 12:39:50;;;;;;;;;;;27.80;61.70;;;;;;5034897;27;89937;-52
2023/07/14 12:42:16;;;;;;;;;;;27.80;61.70;;;;;;5030243;28;88038;-52
2023/07/14 12:44:42;;;;;;;;;;;27.80;61.70;;;;;;5031611;28;91348;-54
2023/07/14 12:47:18;;;;;;;;;;;27.80;61.60;;;;;;5034196;28;87129;-55
2023/07/14 12:49:46;;;;;;;;;;;27.80;61.50;;;;;;5035173;28;87415;-53
2023/07/14 12:52:32;;;;;;;;;;;27.90;61.60;;;;;;5028000;28;88806;-50
2023/07/14 12:55:02;;;;;;;;;;;27.90;61.40;;;;;;5032571;28;87106;-52
2023/07/14 12:57:30;;;;;;;;;;;27.90;61.50;;;;;;5024840;28;88860;-51
2023/07/14 12:59:56;;;;;;;;;;;27.90;61.50;;;;;;5032771;28;89527;-50
2023/07/14 13:02:23;;;;;;;;;;;27.90;61.50;;;;;;5037575;28;87059;-51
2023/07/14 13:04:50;;;;;;;;;;;28.00;61.30;;;;;;5032831;28;88052;-48
2023/07/14 13:07:18;;;;;;;;;;;28.00;61.30;;;;;;5033101;28;88014;-50
2023/07/14 13:09:44;;;;;;;;;;;28.00;61.30;;;;;;5034680;28;88392;-52
2023/07/14 13:12:11;;;;;;;;;;;28.00;61.30;;;;;;5030425;28;88047;-50
2023/07/14 13:14:47;;;;;;;;;;;28.00;61.30;;;;;;5035686;28;87130;-52
2023/07/14 13:17:20;;;;;;;;;;;28.00;61.30;;;;;;5031284;28;87742;-53
2023/07/14 13:19:48;;;;;;;;;;;28.00;61.40;;;;;;5027180;28;89387;-53
2023/07/14 13:22:25;;;;;;;;;;;28.10;61.20;;;;;;5034550;28;87506;-50
2023/07/14 13:25:04;;;;;;;;;;;28.10;61.30;;;;;;5033535;28;87309;-48
2023/07/14 13:27:30;;;;;;;;;;;28.10;61.20;;;;;;5025783;28;87274;-51
2023/07/14 13:30:00;;;;;;;;;;;28.10;61.30;;;;;;5035544;28;87660;-52
2023/07/14 13:32:27;;;;;;;;;;;28.10;61.20;;;;;;5031342;28;90050;-50
2023/07/14 13:34:57;;;;;;;;;;;28.20;61.20;;;;;;5031002;28;87169;-53
2023/07/14 13:37:23;;;;;;;;;;;28.20;61.10;;;;;;5032989;27;88729;-48
2023/07/14 13:39:55;;;;;;;;;;;28.30;61.10;;;;;;5032126;28;89855;-47
2023/07/14 13:42:29;;;;;;;;;;;28.30;60.90;;;;;;5030890;28;87220;-50
2023/07/14 13:44:57;;;;;;;;;;;28.30;60.90;;;;;;5036518;28;87387;-47
2023/07/14 13:47:24;;;;;;;;;;;28.30;60.90;;;;;;5026091;28;86903;-43
2023/07/14 13:49:50;;;;;;;;;;;28.30;59.00;;;;;;5031197;27;88919;-43
2023/07/14 13:52:20;;;;;;;;;;;28.30;57.60;;;;;;5033821;27;89289;-45
2023/07/14 13:54:52;;;;;;;;;;;28.30;54.80;;;;;;5031289;28;87163;-41
2023/07/14 13:57:18;;;;;;;;;;;28.40;55.20;;;;;;5028410;28;88280;-42
2023/07/14 13:59:44;;;;;;;;;;;28.30;55.60;;;;;;5031704;28;88003;-53
2023/07/14 14:02:22;;;;;;;;;;;28.40;56.20;;;;;;5033511;28;87174;-48
2023/07/14 14:04:47;;;;;;;;;;;28.30;55.00;;;;;;5033184;28;87329;-44
2023/07/14 14:07:13;;;;;;;;;;;28.40;55.70;;;;;;5030022;28;88203;-41
2023/07/14 14:09:38;;;;;;;;;;;28.30;55.00;;;;;;5034804;28;86986;-48
2023/07/14 14:12:04;;;;;;;;;;;28.30;55.60;;;;;;5031611;28;88178;-44
2023/07/14 14:14:29;;;;;;;;;;;28.40;55.20;;;;;;5031993;28;86859;-53
2023/07/14 14:16:57;;;;;;;;;;;28.40;55.80;;;;;;5032362;28;87028;-42
2023/07/14 14:19:23;;;;;;;;;;;28.50;55.70;;;;;;5032237;28;89424;-45
2023/07/14 14:21:49;;;;;;;;;;;28.70;56.10;;;;;;5030269;28;88128;-42
2023/07/14 14:24:15;;;;;;;;;;;28.80;56.70;;;;;;5033618;28;88433;-40